createdAt,value
2022-09-01T00:00:33.287Z,18.09
2022-09-01T00:01:33.275Z,18.06
2022-09-01T00:02:33.323Z,18.06
2022-09-01T00:03:33.254Z,18.06
2022-09-01T00:04:33.270Z,18.07
2022-09-01T00:05:33.231Z,18.09
2022-09-01T00:06:33.218Z,18.07
2022-09-01T00:07:33.209Z,18.09
2022-09-01T00:08:33.200Z,17.94
2022-09-01T00:09:33.196Z,18.00
2022-09-01T00:10:33.175Z,17.92
2022-09-01T00:11:33.166Z,17.94
2022-09-01T00:12:33.155Z,18.02
2022-09-01T00:13:33.145Z,17.97
2022-09-01T00:14:33.141Z,17.92
2022-09-01T00:15:33.203Z,17.91
2022-09-01T00:16:33.109Z,17.88
2022-09-01T00:17:33.103Z,17.84
2022-09-01T00:18:33.089Z,17.84
2022-09-01T00:19:33.092Z,17.82
2022-09-01T00:20:33.065Z,17.81
2022-09-01T00:21:33.056Z,17.84
2022-09-01T00:22:33.045Z,17.84
2022-09-01T00:23:33.035Z,17.82
2022-09-01T00:24:33.031Z,17.84
2022-09-01T00:25:33.011Z,17.85
2022-09-01T00:26:33.002Z,17.89
2022-09-01T00:27:32.989Z,17.91
2022-09-01T00:28:32.979Z,17.95
2022-09-01T00:29:32.982Z,17.97
2022-09-01T00:30:32.954Z,17.97
2022-09-01T00:31:33.054Z,18.04
2022-09-01T00:32:32.934Z,17.95
2022-09-01T00:33:32.922Z,18.02
2022-09-01T00:34:32.923Z,18.00
2022-09-01T00:35:37.139Z,17.99
2022-09-01T00:36:32.892Z,18.03
2022-09-01T00:37:32.881Z,17.99
2022-09-01T00:38:32.867Z,18.00
2022-09-01T00:39:32.867Z,18.09
2022-09-01T00:40:32.880Z,17.97
2022-09-01T00:41:32.834Z,17.94
2022-09-01T00:42:32.822Z,18.03
2022-09-01T00:43:32.813Z,18.02
2022-09-01T00:44:32.814Z,17.97
2022-09-01T00:45:32.792Z,17.97
2022-09-01T00:46:32.866Z,18.09
2022-09-01T00:47:32.768Z,18.04
2022-09-01T00:48:32.756Z,18.09
2022-09-01T00:49:35.351Z,18.03
2022-09-01T00:50:32.734Z,18.02
2022-09-01T00:51:32.725Z,18.12
2022-09-01T00:52:32.714Z,18.12
2022-09-01T00:53:32.704Z,18.10
2022-09-01T00:54:32.699Z,18.15
2022-09-01T00:55:32.828Z,18.03
2022-09-01T00:56:32.672Z,18.06
2022-09-01T00:57:32.659Z,18.04
2022-09-01T00:58:32.647Z,18.06
2022-09-01T00:59:32.670Z,18.10
2022-09-01T01:00:32.628Z,18.15
2022-09-01T01:01:32.681Z,18.07
2022-09-01T01:02:32.658Z,18.19
2022-09-01T01:03:32.594Z,18.15
2022-09-01T01:04:32.595Z,18.13
2022-09-01T01:05:32.572Z,18.06
2022-09-01T01:06:32.559Z,18.12
2022-09-01T01:07:32.550Z,18.09
2022-09-01T01:08:32.536Z,18.06
2022-09-01T01:09:32.538Z,18.06
2022-09-01T01:10:32.519Z,18.12
2022-09-01T01:11:32.505Z,17.97
2022-09-01T01:12:32.494Z,17.94
2022-09-01T01:13:32.481Z,17.95
2022-09-01T01:14:32.534Z,17.91
2022-09-01T01:15:32.459Z,17.92
2022-09-01T01:16:32.518Z,17.97
2022-09-01T01:17:32.437Z,17.92
2022-09-01T01:18:32.429Z,18.02
2022-09-01T01:19:35.837Z,18.03
2022-09-01T01:20:33.403Z,17.94
2022-09-01T01:21:32.393Z,17.95
2022-09-01T01:22:32.385Z,17.95
2022-09-01T01:23:32.370Z,17.95
2022-09-01T01:24:32.372Z,18.03
2022-09-01T01:25:32.350Z,17.95
2022-09-01T01:26:32.342Z,18.00
2022-09-01T01:27:32.334Z,17.95
2022-09-01T01:28:32.319Z,17.92
2022-09-01T01:29:32.322Z,17.94
2022-09-01T01:30:32.312Z,17.88
2022-09-01T01:31:32.285Z,17.84
2022-09-01T01:32:32.276Z,17.81
2022-09-01T01:33:32.296Z,17.79
2022-09-01T01:34:32.255Z,17.76
2022-09-01T01:35:32.265Z,17.64
2022-09-01T01:36:32.261Z,17.63
2022-09-01T01:37:32.219Z,17.64
2022-09-01T01:38:32.209Z,17.64
2022-09-01T01:39:32.196Z,17.70
2022-09-01T01:40:32.269Z,17.66
2022-09-01T01:41:32.172Z,17.69
2022-09-01T01:42:32.170Z,17.66
2022-09-01T01:43:32.151Z,17.57
2022-09-01T01:44:32.141Z,17.55
2022-09-01T01:45:32.137Z,17.62
2022-09-01T01:46:32.172Z,17.53
2022-09-01T01:47:32.109Z,17.59
2022-09-01T01:48:32.098Z,17.51
2022-09-01T01:49:32.085Z,17.41
2022-09-01T01:50:32.084Z,17.43
2022-09-01T01:51:32.063Z,17.51
2022-09-01T01:52:32.055Z,17.43
2022-09-01T01:53:32.040Z,17.35
2022-09-01T01:54:32.035Z,17.43
2022-09-01T01:55:32.026Z,17.48
2022-09-01T01:56:32.011Z,17.48
2022-09-01T01:57:31.998Z,17.41
2022-09-01T01:58:31.989Z,17.43
2022-09-01T01:59:31.976Z,17.41
2022-09-01T02:00:31.982Z,17.48
2022-09-01T02:01:32.066Z,17.41
2022-09-01T02:02:32.026Z,17.44
2022-09-01T02:03:31.930Z,17.57
2022-09-01T02:04:31.921Z,17.62
2022-09-01T02:05:31.917Z,17.50
2022-09-01T02:06:31.906Z,17.59
2022-09-01T02:07:31.886Z,17.63
2022-09-01T02:08:31.878Z,17.55
2022-09-01T02:09:31.864Z,17.55
2022-09-01T02:10:31.870Z,17.47
2022-09-01T02:11:31.842Z,17.47
2022-09-01T02:12:31.833Z,17.47
2022-09-01T02:13:31.819Z,17.50
2022-09-01T02:14:31.811Z,17.55
2022-09-01T02:15:31.808Z,17.57
2022-09-01T02:16:31.871Z,17.59
2022-09-01T02:17:31.774Z,17.55
2022-09-01T02:18:31.766Z,17.57
2022-09-01T02:19:31.755Z,17.57
2022-09-01T02:20:31.753Z,17.59
2022-09-01T02:21:31.734Z,17.53
2022-09-01T02:22:31.749Z,17.57
2022-09-01T02:23:31.708Z,17.50
2022-09-01T02:24:31.718Z,17.41
2022-09-01T02:25:31.687Z,17.46
2022-09-01T02:26:31.677Z,17.47
2022-09-01T02:27:31.663Z,17.46
2022-09-01T02:28:31.656Z,17.40
2022-09-01T02:29:33.312Z,17.40
2022-09-01T02:30:32.665Z,17.44
2022-09-01T02:31:31.619Z,17.35
2022-09-01T02:32:31.611Z,17.29
2022-09-01T02:33:31.598Z,17.29
2022-09-01T02:34:31.603Z,17.26
2022-09-01T02:35:31.580Z,17.30
2022-09-01T02:36:31.568Z,17.18
2022-09-01T02:37:31.557Z,17.17
2022-09-01T02:38:31.544Z,17.11
2022-09-01T02:39:31.543Z,17.08
2022-09-01T02:40:31.640Z,17.06
2022-09-01T02:41:31.509Z,17.22
2022-09-01T02:42:31.513Z,17.06
2022-09-01T02:43:31.490Z,17.07
2022-09-01T02:44:31.488Z,17.13
2022-09-01T02:45:31.510Z,17.17
2022-09-01T02:46:31.460Z,17.22
2022-09-01T02:47:31.442Z,17.18
2022-09-01T02:48:31.434Z,17.29
2022-09-01T02:49:31.441Z,17.30
2022-09-01T02:50:31.410Z,17.26
2022-09-01T02:51:31.399Z,17.22
2022-09-01T02:52:31.389Z,17.26
2022-09-01T02:53:31.376Z,17.32
2022-09-01T02:54:31.380Z,17.28
2022-09-01T02:55:31.359Z,17.29
2022-09-01T02:56:31.419Z,17.29
2022-09-01T02:57:31.332Z,17.20
2022-09-01T02:58:31.322Z,17.25
2022-09-01T02:59:31.325Z,17.26
2022-09-01T03:00:31.300Z,17.25
2022-09-01T03:01:31.309Z,17.28
2022-09-01T03:02:31.278Z,17.18
2022-09-01T03:03:31.274Z,17.15
2022-09-01T03:04:31.321Z,17.18
2022-09-01T03:05:31.244Z,17.15
2022-09-01T03:06:31.237Z,17.15
2022-09-01T03:07:31.224Z,17.08
2022-09-01T03:08:31.223Z,17.15
2022-09-01T03:09:31.200Z,17.14
2022-09-01T03:10:31.190Z,17.08
2022-09-01T03:11:31.180Z,17.14
2022-09-01T03:12:31.169Z,17.07
2022-09-01T03:13:31.167Z,16.95
2022-09-01T03:14:31.147Z,16.96
2022-09-01T03:15:31.132Z,16.98
2022-09-01T03:16:31.182Z,16.90
2022-09-01T03:17:31.113Z,16.93
2022-09-01T03:18:31.113Z,16.93
2022-09-01T03:19:31.089Z,16.89
2022-09-01T03:20:31.079Z,16.86
2022-09-01T03:21:31.066Z,16.78
2022-09-01T03:22:31.061Z,16.71
2022-09-01T03:23:31.055Z,16.71
2022-09-01T03:24:31.035Z,16.75
2022-09-01T03:25:31.023Z,16.75
2022-09-01T03:26:31.013Z,16.71
2022-09-01T03:27:31.001Z,16.71
2022-09-01T03:28:31.005Z,16.74
2022-09-01T03:29:30.983Z,16.77
2022-09-01T03:30:30.970Z,16.77
2022-09-01T03:31:31.531Z,16.73
2022-09-01T03:32:30.957Z,16.74
2022-09-01T03:33:30.944Z,16.75
2022-09-01T03:34:30.926Z,16.75
2022-09-01T03:35:30.914Z,16.68
2022-09-01T03:36:30.904Z,16.68
2022-09-01T03:37:30.893Z,16.75
2022-09-01T03:38:30.894Z,16.62
2022-09-01T03:39:30.872Z,16.67
2022-09-01T03:40:30.949Z,16.81
2022-09-01T03:41:30.853Z,16.65
2022-09-01T03:42:30.840Z,16.70
2022-09-01T03:43:34.478Z,16.62
2022-09-01T03:44:31.816Z,16.73
2022-09-01T03:45:30.832Z,16.53
2022-09-01T03:46:35.701Z,16.55
2022-09-01T03:47:31.785Z,16.58
2022-09-01T03:48:30.785Z,16.60
2022-09-01T03:49:30.761Z,16.55
2022-09-01T03:50:30.754Z,16.59
2022-09-01T03:51:30.742Z,16.53
2022-09-01T03:52:30.729Z,16.59
2022-09-01T03:53:30.729Z,16.58
2022-09-01T03:54:30.868Z,16.55
2022-09-01T03:55:30.698Z,16.65
2022-09-01T03:56:30.685Z,16.56
2022-09-01T03:57:32.468Z,16.53
2022-09-01T03:58:30.678Z,16.53
2022-09-01T03:59:30.654Z,16.59
2022-09-01T04:00:30.642Z,16.60
2022-09-01T04:01:30.665Z,16.60
2022-09-01T04:02:30.707Z,16.68
2022-09-01T04:03:31.054Z,16.63
2022-09-01T04:04:30.603Z,16.60
2022-09-01T04:05:30.597Z,16.60
2022-09-01T04:06:30.590Z,16.56
2022-09-01T04:07:30.567Z,16.53
2022-09-01T04:08:32.402Z,16.60
2022-09-01T04:09:30.543Z,16.53
2022-09-01T04:10:30.534Z,16.58
2022-09-01T04:11:30.522Z,16.44
2022-09-01T04:12:30.512Z,16.37
2022-09-01T04:13:30.510Z,16.40
2022-09-01T04:14:30.789Z,16.33
2022-09-01T04:15:30.478Z,16.38
2022-09-01T04:16:30.581Z,16.34
2022-09-01T04:17:30.775Z,16.40
2022-09-01T04:18:30.460Z,16.37
2022-09-01T04:19:30.433Z,16.34
2022-09-01T04:20:30.425Z,16.33
2022-09-01T04:21:30.412Z,16.35
2022-09-01T04:22:30.403Z,16.27
2022-09-01T04:23:30.403Z,16.30
2022-09-01T04:24:30.380Z,16.30
2022-09-01T04:25:30.367Z,16.25
2022-09-01T04:26:30.360Z,16.20
2022-09-01T04:27:30.347Z,16.27
2022-09-01T04:28:30.350Z,16.27
2022-09-01T04:29:30.325Z,16.35
2022-09-01T04:30:30.316Z,16.35
2022-09-01T04:31:30.333Z,16.33
2022-09-01T04:32:30.297Z,16.30
2022-09-01T04:33:30.291Z,16.31
2022-09-01T04:34:30.272Z,16.31
2022-09-01T04:35:30.260Z,16.35
2022-09-01T04:36:30.252Z,16.26
2022-09-01T04:37:30.237Z,16.31
2022-09-01T04:38:30.239Z,16.20
2022-09-01T04:39:30.224Z,16.31
2022-09-01T04:40:30.300Z,16.35
2022-09-01T04:41:30.199Z,16.31
2022-09-01T04:42:30.184Z,16.38
2022-09-01T04:43:30.171Z,16.37
2022-09-01T04:44:30.176Z,16.37
2022-09-01T04:45:30.233Z,16.14
2022-09-01T04:46:30.140Z,16.04
2022-09-01T04:47:35.757Z,15.96
2022-09-01T04:48:31.117Z,16.09
2022-09-01T04:49:30.115Z,16.04
2022-09-01T04:50:30.101Z,16.12
2022-09-01T04:51:30.084Z,16.15
2022-09-01T04:52:30.074Z,16.18
2022-09-01T04:53:30.062Z,16.20
2022-09-01T04:54:30.090Z,16.30
2022-09-01T04:55:30.039Z,16.38
2022-09-01T04:56:30.030Z,16.31
2022-09-01T04:57:30.020Z,16.31
2022-09-01T04:58:30.015Z,16.38
2022-09-01T04:59:30.007Z,16.37
2022-09-01T05:00:29.992Z,16.33
2022-09-01T05:01:30.096Z,16.42
2022-09-01T05:02:30.032Z,16.37
2022-09-01T05:03:29.954Z,16.55
2022-09-01T05:04:30.010Z,16.55
2022-09-01T05:05:29.932Z,16.49
2022-09-01T05:06:29.932Z,16.56
2022-09-01T05:07:29.913Z,16.50
2022-09-01T05:08:32.713Z,16.62
2022-09-01T05:09:29.897Z,16.65
2022-09-01T05:10:30.127Z,16.70
2022-09-01T05:11:29.867Z,16.70
2022-09-01T05:12:29.856Z,16.73
2022-09-01T05:13:29.853Z,16.73
2022-09-01T05:14:29.844Z,16.71
2022-09-01T05:15:29.822Z,16.75
2022-09-01T05:16:29.880Z,16.73
2022-09-01T05:17:29.805Z,16.75
2022-09-01T05:18:29.794Z,16.73
2022-09-01T05:19:29.798Z,16.80
2022-09-01T05:20:29.770Z,16.88
2022-09-01T05:21:29.921Z,16.80
2022-09-01T05:22:29.751Z,16.92
2022-09-01T05:23:29.733Z,16.96
2022-09-01T05:24:29.896Z,16.88
2022-09-01T05:25:29.715Z,16.93
2022-09-01T05:26:29.702Z,16.90
2022-09-01T05:27:29.731Z,16.89
2022-09-01T05:28:29.682Z,16.86
2022-09-01T05:29:29.704Z,16.80
2022-09-01T05:30:29.656Z,16.88
2022-09-01T05:31:29.711Z,16.89
2022-09-01T05:32:29.633Z,16.83
2022-09-01T05:33:29.625Z,16.95
2022-09-01T05:34:29.621Z,17.06
2022-09-01T05:35:32.547Z,17.10
2022-09-01T05:36:29.590Z,17.08
2022-09-01T05:37:29.579Z,17.07
2022-09-01T05:38:29.578Z,17.11
2022-09-01T05:39:29.585Z,17.11
2022-09-01T05:40:29.636Z,17.15
2022-09-01T05:41:33.780Z,17.15
2022-09-01T05:42:29.525Z,17.17
2022-09-01T05:43:29.515Z,17.28
2022-09-01T05:44:29.522Z,17.28
2022-09-01T05:45:40.103Z,17.26
2022-09-01T05:46:30.583Z,17.35
2022-09-01T05:47:29.470Z,17.43
2022-09-01T05:48:29.456Z,17.36
2022-09-01T05:49:29.458Z,17.41
2022-09-01T05:50:29.435Z,17.40
2022-09-01T05:51:45.943Z,17.46
2022-09-01T05:52:30.413Z,17.43
2022-09-01T05:53:29.407Z,17.43
2022-09-01T05:54:29.400Z,17.43
2022-09-01T05:55:29.386Z,17.40
2022-09-01T05:56:29.368Z,17.59
2022-09-01T05:57:34.633Z,17.62
2022-09-01T05:59:22.541Z,17.59
2022-09-01T05:59:30.344Z,17.63
2022-09-01T06:00:29.325Z,17.67
2022-09-01T06:01:29.393Z,17.64
2022-09-01T06:02:29.414Z,17.76
2022-09-01T06:03:29.346Z,17.78
2022-09-01T06:04:29.295Z,17.79
2022-09-01T06:05:29.270Z,17.89
2022-09-01T06:06:36.803Z,17.95
2022-09-01T06:07:30.247Z,18.04
2022-09-01T06:08:29.235Z,18.06
2022-09-01T06:09:29.236Z,18.03
2022-09-01T06:10:29.216Z,18.12
2022-09-01T06:11:29.210Z,18.12
2022-09-01T06:12:29.194Z,18.10
2022-09-01T06:13:29.186Z,18.24
2022-09-01T06:14:29.180Z,18.36
2022-09-01T06:15:29.163Z,18.29
2022-09-01T06:16:29.186Z,18.31
2022-09-01T06:17:29.139Z,18.28
2022-09-01T06:18:29.126Z,18.37
2022-09-01T06:19:31.546Z,18.28
2022-09-01T06:20:30.112Z,18.40
2022-09-01T06:21:29.102Z,18.33
2022-09-01T06:22:29.081Z,18.46
2022-09-01T06:23:29.163Z,18.52
2022-09-01T06:24:29.081Z,18.65
2022-09-01T06:25:29.089Z,18.76
2022-09-01T06:26:29.038Z,18.90
2022-09-01T06:27:29.068Z,18.94
2022-09-01T06:28:29.021Z,18.97
2022-09-01T06:29:29.021Z,18.95
2022-09-01T06:30:28.997Z,19.10
2022-09-01T06:31:29.070Z,19.20
2022-09-01T06:32:29.054Z,19.20
2022-09-01T06:33:28.979Z,19.31
2022-09-01T06:34:28.963Z,19.48
2022-09-01T06:35:28.945Z,19.48
2022-09-01T06:36:32.047Z,19.69
2022-09-01T06:37:29.966Z,19.83
2022-09-01T06:38:28.982Z,19.91
2022-09-01T06:39:28.915Z,20.08
2022-09-01T06:40:28.924Z,20.12
2022-09-01T06:41:28.877Z,20.30
2022-09-01T06:42:28.863Z,20.27
2022-09-01T06:43:28.855Z,20.33
2022-09-01T06:44:28.853Z,20.41
2022-09-01T06:45:28.832Z,20.54
2022-09-01T06:46:28.885Z,20.65
2022-09-01T06:47:28.818Z,20.83
2022-09-01T06:48:28.801Z,20.89
2022-09-01T06:49:28.797Z,20.96
2022-09-01T06:51:29.768Z,21.16
2022-09-01T06:53:31.621Z,21.17
2022-09-01T06:53:33.118Z,21.29
2022-09-01T06:54:28.744Z,21.50
2022-09-01T06:55:28.778Z,21.71
2022-09-01T06:56:30.962Z,21.91
2022-09-01T06:58:29.696Z,22.31
2022-09-01T06:59:32.593Z,22.47
2022-09-01T07:00:29.667Z,22.72
2022-09-01T07:01:29.267Z,22.74
2022-09-01T07:02:28.682Z,22.97
2022-09-01T07:03:28.639Z,23.15
2022-09-01T07:04:28.638Z,23.43
2022-09-01T07:08:29.581Z,24.54
2022-09-01T07:09:39.718Z,24.73
2022-09-01T07:10:29.564Z,24.82
2022-09-01T07:12:29.539Z,24.92
2022-09-01T07:13:28.528Z,24.76
2022-09-01T07:14:28.528Z,24.76
2022-09-01T07:16:32.497Z,25.16
2022-09-01T07:17:28.491Z,25.39
2022-09-01T07:18:28.839Z,25.56
2022-09-01T07:19:48.277Z,25.84
2022-09-01T07:20:29.531Z,26.06
2022-09-01T07:22:06.762Z,26.21
2022-09-01T07:23:02.603Z,26.20
2022-09-01T07:23:46.273Z,26.15
2022-09-01T07:24:31.797Z,26.12
2022-09-01T07:25:34.912Z,26.20
2022-09-01T07:26:29.387Z,26.37
2022-09-01T07:27:35.655Z,26.58
2022-09-01T07:28:36.159Z,26.83
2022-09-01T07:29:29.362Z,27.05
2022-09-01T07:30:28.349Z,27.19
2022-09-01T07:32:47.728Z,27.50
2022-09-01T07:33:45.602Z,27.61
2022-09-01T07:35:29.293Z,27.69
2022-09-01T07:36:29.294Z,27.59
2022-09-01T07:42:31.700Z,27.79
2022-09-01T07:43:32.708Z,27.71
2022-09-01T07:44:28.217Z,27.86
2022-09-01T07:45:28.774Z,28.04
2022-09-01T07:46:43.602Z,28.09
2022-09-01T07:47:57.359Z,28.22
2022-09-01T07:49:01.189Z,28.44
2022-09-01T07:49:30.304Z,28.65
2022-09-01T07:51:37.680Z,28.84
2022-09-01T07:52:29.119Z,28.72
2022-09-01T07:53:28.122Z,28.78
2022-09-01T07:54:28.099Z,28.85
2022-09-01T07:55:28.094Z,28.87
2022-09-01T07:56:28.078Z,28.87
2022-09-01T07:57:28.072Z,29.03
2022-09-01T07:58:28.089Z,29.40
2022-09-01T07:59:28.055Z,29.50
2022-09-01T08:00:30.189Z,29.56
2022-09-01T08:01:28.054Z,29.59
2022-09-01T08:02:28.139Z,29.66
2022-09-01T08:03:28.020Z,29.71
2022-09-01T08:04:27.998Z,29.77
2022-09-01T08:05:27.990Z,29.92
2022-09-01T08:06:28.181Z,29.86
2022-09-01T08:07:27.983Z,29.92
2022-09-01T08:08:29.328Z,29.92
2022-09-01T08:09:38.049Z,29.82
2022-09-01T08:10:28.940Z,29.57
2022-09-01T08:11:51.539Z,29.59
2022-09-01T08:12:29.315Z,29.53
2022-09-01T08:13:27.913Z,29.34
2022-09-01T08:14:33.710Z,29.11
2022-09-01T08:16:39.265Z,29.16
2022-09-01T08:17:51.192Z,29.00
2022-09-01T08:18:29.537Z,28.97
2022-09-01T08:19:27.850Z,28.88
2022-09-01T08:20:27.842Z,28.70
2022-09-01T08:21:27.853Z,28.68
2022-09-01T08:22:27.832Z,28.80
2022-09-01T08:23:27.814Z,29.03
2022-09-01T08:24:27.799Z,29.26
2022-09-01T08:25:27.796Z,29.38
2022-09-01T08:26:27.794Z,29.53
2022-09-01T08:27:27.776Z,29.65
2022-09-01T08:28:27.996Z,29.74
2022-09-01T08:29:27.752Z,29.68
2022-09-01T08:30:27.756Z,29.79
2022-09-01T08:31:30.600Z,30.05
2022-09-01T08:32:27.719Z,30.12
2022-09-01T08:33:27.711Z,30.15
2022-09-01T08:34:27.702Z,30.12
2022-09-01T08:35:27.693Z,30.11
2022-09-01T08:36:27.692Z,30.15
2022-09-01T08:37:27.698Z,30.24
2022-09-01T08:38:28.958Z,30.34
2022-09-01T08:39:27.653Z,30.45
2022-09-01T08:40:27.739Z,30.37
2022-09-01T08:41:28.696Z,30.30
2022-09-01T08:42:30.029Z,30.36
2022-09-01T08:43:27.611Z,30.56
2022-09-01T08:44:27.642Z,30.68
2022-09-01T08:45:27.595Z,30.81
2022-09-01T08:46:27.715Z,30.74
2022-09-01T08:47:35.593Z,30.47
2022-09-01T08:49:16.422Z,30.12
2022-09-01T08:49:29.213Z,30.16
2022-09-01T08:50:27.543Z,30.03
2022-09-01T08:51:27.547Z,30.00
2022-09-01T08:52:27.531Z,29.97
2022-09-01T08:53:27.515Z,30.19
2022-09-01T08:54:29.453Z,30.18
2022-09-01T08:55:27.510Z,30.38
2022-09-01T08:56:27.508Z,30.36
2022-09-01T08:57:27.486Z,30.37
2022-09-01T08:58:27.473Z,30.31
2022-09-01T08:59:27.457Z,30.19
2022-09-01T09:00:27.444Z,30.15
2022-09-01T09:01:27.576Z,30.21
2022-09-01T09:02:27.516Z,30.29
2022-09-01T09:03:27.480Z,30.46
2022-09-01T09:04:27.409Z,30.46
2022-09-01T09:05:27.400Z,30.46
2022-09-01T09:06:27.399Z,30.69
2022-09-01T09:07:27.381Z,30.59
2022-09-01T09:08:29.613Z,30.69
2022-09-01T09:09:34.546Z,30.69
2022-09-01T09:10:28.348Z,30.80
2022-09-01T09:11:27.357Z,30.96
2022-09-01T09:12:27.328Z,30.72
2022-09-01T09:13:27.320Z,30.78
2022-09-01T09:14:27.309Z,30.75
2022-09-01T09:15:27.317Z,30.47
2022-09-01T09:16:27.412Z,30.15
2022-09-01T09:17:27.477Z,29.74
2022-09-01T09:18:39.196Z,29.53
2022-09-01T09:19:28.263Z,29.35
2022-09-01T09:20:27.254Z,29.37
2022-09-01T09:21:27.252Z,29.68
2022-09-01T09:22:27.233Z,29.44
2022-09-01T09:23:27.229Z,29.44
2022-09-01T09:24:27.220Z,29.55
2022-09-01T09:25:28.204Z,29.75
2022-09-01T09:26:27.424Z,29.90
2022-09-01T09:27:27.186Z,29.77
2022-09-01T09:28:27.174Z,29.70
2022-09-01T09:29:27.169Z,29.89
2022-09-01T09:30:27.155Z,29.75
2022-09-01T09:31:27.196Z,29.81
2022-09-01T09:32:44.260Z,29.82
2022-09-01T09:33:48.562Z,29.86
2022-09-01T09:34:28.116Z,30.03
2022-09-01T09:35:27.109Z,30.30
2022-09-01T09:36:27.117Z,30.31
2022-09-01T09:37:27.087Z,29.81
2022-09-01T09:38:27.076Z,29.49
2022-09-01T09:39:27.068Z,29.29
2022-09-01T09:40:27.151Z,29.45
2022-09-01T09:41:27.606Z,29.03
2022-09-01T09:42:33.392Z,28.70
2022-09-01T09:43:28.147Z,28.60
2022-09-01T09:44:27.020Z,28.68
2022-09-01T09:45:27.007Z,28.73
2022-09-01T09:46:27.052Z,28.80
2022-09-01T09:47:42.760Z,28.58
2022-09-01T09:48:29.170Z,28.10
2022-09-01T09:49:34.606Z,27.71
2022-09-01T09:50:27.957Z,27.16
2022-09-01T09:51:28.966Z,27.06
2022-09-01T09:52:26.938Z,26.54
2022-09-01T09:53:26.927Z,26.67
2022-09-01T09:54:26.918Z,27.09
2022-09-01T09:55:26.905Z,27.43
2022-09-01T09:56:26.910Z,27.96
2022-09-01T09:57:26.885Z,28.10
2022-09-01T09:58:26.878Z,27.99
2022-09-01T09:59:53.092Z,28.28
2022-09-01T10:00:27.855Z,28.56
2022-09-01T10:01:26.909Z,28.60
2022-09-01T10:02:28.019Z,28.21
2022-09-01T10:03:29.119Z,28.10
2022-09-01T10:04:26.844Z,28.26
2022-09-01T10:05:26.807Z,28.09
2022-09-01T10:06:26.806Z,28.23
2022-09-01T10:07:26.784Z,28.69
2022-09-01T10:08:26.780Z,29.28
2022-09-01T10:09:26.764Z,29.22
2022-09-01T10:10:26.754Z,28.75
2022-09-01T10:11:31.288Z,28.25
2022-09-01T10:12:27.739Z,28.43
2022-09-01T10:13:26.912Z,28.33
2022-09-01T10:14:51.645Z,28.53
2022-09-01T10:15:28.272Z,28.48
2022-09-01T10:16:27.764Z,27.92
2022-09-01T10:17:26.778Z,27.62
2022-09-01T10:18:29.800Z,27.43
2022-09-01T10:19:26.662Z,27.24
2022-09-01T10:20:26.663Z,27.01
2022-09-01T10:21:26.644Z,26.96
2022-09-01T10:22:26.634Z,26.43
2022-09-01T10:23:27.383Z,26.29
2022-09-01T10:24:30.476Z,26.46
2022-09-01T10:25:29.471Z,26.98
2022-09-01T10:26:26.595Z,27.47
2022-09-01T10:27:26.582Z,27.64
2022-09-01T10:28:26.917Z,27.91
2022-09-01T10:29:26.561Z,27.79
2022-09-01T10:30:26.622Z,27.67
2022-09-01T10:31:29.565Z,27.31
2022-09-01T10:32:37.012Z,26.95
2022-09-01T10:33:27.520Z,26.46
2022-09-01T10:34:26.532Z,25.83
2022-09-01T10:35:26.950Z,25.61
2022-09-01T10:36:26.491Z,25.19
2022-09-01T10:37:27.640Z,24.97
2022-09-01T10:38:26.474Z,24.69
2022-09-01T10:39:28.697Z,24.59
2022-09-01T10:40:31.199Z,24.50
2022-09-01T10:41:27.460Z,24.45
2022-09-01T10:42:26.428Z,24.45
2022-09-01T10:43:26.500Z,24.45
2022-09-01T10:44:26.613Z,24.41
2022-09-01T10:45:26.630Z,24.27
2022-09-01T10:46:27.623Z,24.38
2022-09-01T10:47:27.387Z,24.13
2022-09-01T10:48:45.697Z,23.95
2022-09-01T10:49:27.754Z,23.92
2022-09-01T10:50:26.355Z,23.90
2022-09-01T10:51:28.386Z,23.90
2022-09-01T10:52:28.569Z,24.00
2022-09-01T10:53:26.859Z,23.95
2022-09-01T10:54:26.653Z,23.87
2022-09-01T10:55:26.297Z,23.79
2022-09-01T10:56:29.437Z,23.72
2022-09-01T10:57:28.077Z,23.79
2022-09-01T10:59:31.576Z,23.65
2022-09-01T11:01:10.676Z,23.67
2022-09-01T11:01:47.950Z,23.65
2022-09-01T11:02:28.715Z,23.64
2022-09-01T11:03:31.539Z,23.68
2022-09-01T11:04:27.273Z,23.62
2022-09-01T11:05:31.260Z,23.65
2022-09-01T11:06:33.266Z,23.55
2022-09-01T11:07:44.250Z,23.43
2022-09-01T11:08:27.452Z,23.19
2022-09-01T11:09:26.139Z,23.24
2022-09-01T11:10:34.193Z,23.26
2022-09-01T11:11:27.115Z,23.19
2022-09-01T11:12:29.207Z,23.26
2022-09-01T11:13:26.094Z,23.14
2022-09-01T11:14:26.091Z,23.14
2022-09-01T11:15:26.785Z,23.20
2022-09-01T11:17:27.067Z,23.34
2022-09-01T11:18:26.051Z,23.42
2022-09-01T11:19:26.032Z,23.42
2022-09-01T11:20:26.030Z,23.35
2022-09-01T11:21:26.049Z,23.31
2022-09-01T11:22:26.507Z,23.32
2022-09-01T11:23:27.798Z,23.23
2022-09-01T11:24:27.334Z,23.15
2022-09-01T11:25:25.977Z,23.22
2022-09-01T11:26:25.955Z,23.23
2022-09-01T11:27:25.943Z,23.40
2022-09-01T11:28:25.992Z,23.24
2022-09-01T11:29:25.922Z,23.20
2022-09-01T11:30:25.924Z,23.23
2022-09-01T11:31:26.029Z,23.11
2022-09-01T11:32:25.895Z,22.89
2022-09-01T11:33:25.876Z,22.77
2022-09-01T11:34:25.867Z,22.86
2022-09-01T11:35:25.864Z,22.86
2022-09-01T11:36:25.845Z,22.96
2022-09-01T11:37:27.833Z,22.92
2022-09-01T11:38:25.822Z,23.02
2022-09-01T11:39:25.811Z,22.99
2022-09-01T11:40:25.911Z,22.84
2022-09-01T11:41:32.321Z,22.77
2022-09-01T11:42:25.778Z,22.65
2022-09-01T11:43:27.196Z,22.72
2022-09-01T11:44:25.778Z,22.67
2022-09-01T11:45:25.757Z,22.71
2022-09-01T11:46:25.736Z,22.69
2022-09-01T11:47:25.721Z,22.71
2022-09-01T11:48:25.710Z,22.74
2022-09-01T11:49:25.698Z,22.69
2022-09-01T11:50:25.709Z,22.74
2022-09-01T11:51:25.676Z,22.78
2022-09-01T11:52:25.698Z,22.68
2022-09-01T11:53:25.654Z,22.67
2022-09-01T11:54:25.648Z,22.75
2022-09-01T11:55:25.639Z,22.77
2022-09-01T11:56:25.621Z,22.74
2022-09-01T11:57:25.609Z,22.71
2022-09-01T11:58:25.599Z,22.75
2022-09-01T11:59:25.587Z,22.75
2022-09-01T12:00:25.587Z,22.78
2022-09-01T12:01:25.564Z,22.68
2022-09-01T12:02:25.738Z,22.69
2022-09-01T12:03:25.944Z,22.74
2022-09-01T12:04:25.531Z,22.83
2022-09-01T12:05:25.526Z,22.83
2022-09-01T12:06:25.507Z,22.89
2022-09-01T12:07:25.494Z,22.86
2022-09-01T12:08:25.503Z,22.72
2022-09-01T12:09:25.474Z,22.50
2022-09-01T12:10:25.473Z,22.39
2022-09-01T12:11:25.469Z,22.34
2022-09-01T12:12:25.441Z,22.35
2022-09-01T12:13:25.429Z,22.28
2022-09-01T12:14:25.424Z,22.35
2022-09-01T12:15:25.469Z,22.38
2022-09-01T12:16:25.483Z,22.43
2022-09-01T12:17:25.385Z,22.44
2022-09-01T12:18:25.376Z,22.46
2022-09-01T12:19:25.362Z,22.47
2022-09-01T12:20:28.863Z,22.57
2022-09-01T12:21:25.341Z,22.53
2022-09-01T12:22:25.333Z,22.68
2022-09-01T12:23:25.327Z,22.69
2022-09-01T12:24:25.314Z,22.72
2022-09-01T12:25:25.309Z,22.72
2022-09-01T12:26:25.287Z,22.72
2022-09-01T12:27:25.276Z,22.74
2022-09-01T12:28:25.268Z,22.68
2022-09-01T12:29:31.443Z,22.64
2022-09-01T12:30:26.254Z,22.80
2022-09-01T12:31:25.336Z,22.75
2022-09-01T12:32:25.222Z,22.74
2022-09-01T12:33:25.225Z,22.75
2022-09-01T12:34:25.203Z,22.64
2022-09-01T12:35:25.196Z,22.71
2022-09-01T12:36:25.177Z,22.53
2022-09-01T12:37:25.169Z,22.50
2022-09-01T12:38:25.177Z,22.52
2022-09-01T12:39:25.144Z,22.50
2022-09-01T12:40:25.203Z,22.47
2022-09-01T12:41:25.122Z,22.53
2022-09-01T12:42:25.113Z,22.44
2022-09-01T12:43:25.104Z,22.39
2022-09-01T12:44:25.090Z,22.37
2022-09-01T12:45:25.089Z,22.38
2022-09-01T12:46:25.068Z,22.39
2022-09-01T12:47:26.871Z,22.34
2022-09-01T12:48:25.046Z,22.41
2022-09-01T12:49:25.118Z,22.38
2022-09-01T12:50:25.032Z,22.41
2022-09-01T12:51:29.270Z,22.46
2022-09-01T12:52:26.356Z,22.43
2022-09-01T12:53:24.991Z,22.49
2022-09-01T12:54:24.984Z,22.47
2022-09-01T12:56:25.957Z,22.56
2022-09-01T12:57:24.947Z,22.67
2022-09-01T12:58:24.943Z,22.74
2022-09-01T12:59:35.766Z,22.71
2022-09-01T13:00:25.924Z,22.78
2022-09-01T13:01:25.040Z,22.72
2022-09-01T13:02:25.068Z,22.67
2022-09-01T13:03:24.881Z,22.80
2022-09-01T13:04:24.880Z,22.71
2022-09-01T13:05:28.585Z,22.72
2022-09-01T13:06:25.847Z,22.75
2022-09-01T13:07:24.837Z,22.68
2022-09-01T13:08:24.826Z,22.74
2022-09-01T13:09:24.864Z,22.72
2022-09-01T13:10:24.805Z,22.68
2022-09-01T13:11:24.936Z,22.68